sensor_id;sensor_type;location;lat;lon;timestamp;temperature;humidity
77523;SHT31;66637;-29.628;-49.938;2023-12-20T00:02:17;23.59;89.00
77523;SHT31;66637;-29.628;-49.938;2023-12-20T00:04:47;23.64;88.89
77523;SHT31;66637;-29.628;-49.938;2023-12-20T00:07:19;23.61;88.97
77523;SHT31;66637;-29.628;-49.938;2023-12-20T00:09:51;23.68;89.33
77523;SHT31;66637;-29.628;-49.938;2023-12-20T00:12:21;23.55;89.26
77523;SHT31;66637;-29.628;-49.938;2023-12-20T00:14:51;23.51;89.18
77523;SHT31;66637;-29.628;-49.938;2023-12-20T00:17:22;23.54;89.38
77523;SHT31;66637;-29.628;-49.938;2023-12-20T00:19:53;23.62;89.43
77523;SHT31;66637;-29.628;-49.938;2023-12-20T00:22:24;23.64;89.68
77523;SHT31;66637;-29.628;-49.938;2023-12-20T00:24:54;23.67;89.62
77523;SHT31;66637;-29.628;-49.938;2023-12-20T00:27:24;23.59;89.37
77523;SHT31;66637;-29.628;-49.938;2023-12-20T00:29:55;23.59;89.53
77523;SHT31;66637;-29.628;-49.938;2023-12-20T00:32:25;23.55;89.52
77523;SHT31;66637;-29.628;-49.938;2023-12-20T00:34:57;23.43;89.74
77523;SHT31;66637;-29.628;-49.938;2023-12-20T00:37:28;23.43;89.69
77523;SHT31;66637;-29.628;-49.938;2023-12-20T00:39:59;23.35;89.47
77523;SHT31;66637;-29.628;-49.938;2023-12-20T00:42:29;23.40;89.69
77523;SHT31;66637;-29.628;-49.938;2023-12-20T00:45:00;23.35;89.60
77523;SHT31;66637;-29.628;-49.938;2023-12-20T00:47:32;23.38;89.65
77523;SHT31;66637;-29.628;-49.938;2023-12-20T00:50:02;23.38;89.59
77523;SHT31;66637;-29.628;-49.938;2023-12-20T00:52:36;23.41;89.35
77523;SHT31;66637;-29.628;-49.938;2023-12-20T00:55:07;23.41;89.34
77523;SHT31;66637;-29.628;-49.938;2023-12-20T00:57:39;23.47;89.60
77523;SHT31;66637;-29.628;-49.938;2023-12-20T01:00:11;23.44;89.71
77523;SHT31;66637;-29.628;-49.938;2023-12-20T01:02:44;23.55;89.79
77523;SHT31;66637;-29.628;-49.938;2023-12-20T01:05:16;23.55;89.88
77523;SHT31;66637;-29.628;-49.938;2023-12-20T01:07:49;23.55;89.82
77523;SHT31;66637;-29.628;-49.938;2023-12-20T01:10:21;23.41;89.67
77523;SHT31;66637;-29.628;-49.938;2023-12-20T01:12:52;23.37;89.54
77523;SHT31;66637;-29.628;-49.938;2023-12-20T01:15:23;23.37;89.68
77523;SHT31;66637;-29.628;-49.938;2023-12-20T01:17:53;23.27;89.72
77523;SHT31;66637;-29.628;-49.938;2023-12-20T01:20:25;23.28;89.76
77523;SHT31;66637;-29.628;-49.938;2023-12-20T01:22:55;23.24;89.80
77523;SHT31;66637;-29.628;-49.938;2023-12-20T01:25:25;23.20;89.73
77523;SHT31;66637;-29.628;-49.938;2023-12-20T01:27:57;23.25;89.86
77523;SHT31;66637;-29.628;-49.938;2023-12-20T01:30:28;23.21;89.86
77523;SHT31;66637;-29.628;-49.938;2023-12-20T01:33:00;23.13;89.79
77523;SHT31;66637;-29.628;-49.938;2023-12-20T01:35:31;23.11;89.84
77523;SHT31;66637;-29.628;-49.938;2023-12-20T01:38:02;23.08;89.93
77523;SHT31;66637;-29.628;-49.938;2023-12-20T01:40:34;23.14;89.97
77523;SHT31;66637;-29.628;-49.938;2023-12-20T01:43:09;23.10;89.95
77523;SHT31;66637;-29.628;-49.938;2023-12-20T01:45:39;23.13;89.97
77523;SHT31;66637;-29.628;-49.938;2023-12-20T01:48:10;23.14;90.04
77523;SHT31;66637;-29.628;-49.938;2023-12-20T01:50:41;23.08;90.38
77523;SHT31;66637;-29.628;-49.938;2023-12-20T01:53:14;23.08;90.12
77523;SHT31;66637;-29.628;-49.938;2023-12-20T01:55:45;23.07;90.18
77523;SHT31;66637;-29.628;-49.938;2023-12-20T01:58:19;23.06;90.30
77523;SHT31;66637;-29.628;-49.938;2023-12-20T02:00:50;23.04;90.38
77523;SHT31;66637;-29.628;-49.938;2023-12-20T02:03:21;23.00;90.33
77523;SHT31;66637;-29.628;-49.938;2023-12-20T02:05:53;22.93;90.43
77523;SHT31;66637;-29.628;-49.938;2023-12-20T02:08:24;22.93;90.46
77523;SHT31;66637;-29.628;-49.938;2023-12-20T02:10:56;22.90;90.33
77523;SHT31;66637;-29.628;-49.938;2023-12-20T02:13:28;22.84;90.55
77523;SHT31;66637;-29.628;-49.938;2023-12-20T02:15:58;22.76;90.73
77523;SHT31;66637;-29.628;-49.938;2023-12-20T02:18:30;22.66;90.51
77523;SHT31;66637;-29.628;-49.938;2023-12-20T02:21:01;22.66;90.70
77523;SHT31;66637;-29.628;-49.938;2023-12-20T02:23:31;22.55;90.59
77523;SHT31;66637;-29.628;-49.938;2023-12-20T02:26:03;22.46;90.81
77523;SHT31;66637;-29.628;-49.938;2023-12-20T02:28:35;22.43;90.82
77523;SHT31;66637;-29.628;-49.938;2023-12-20T02:31:05;22.48;90.84
77523;SHT31;66637;-29.628;-49.938;2023-12-20T02:33:36;22.46;90.92
77523;SHT31;66637;-29.628;-49.938;2023-12-20T02:36:08;22.45;90.95
77523;SHT31;66637;-29.628;-49.938;2023-12-20T02:38:39;22.43;91.00
77523;SHT31;66637;-29.628;-49.938;2023-12-20T02:41:10;22.43;90.97
77523;SHT31;66637;-29.628;-49.938;2023-12-20T02:43:40;22.41;90.95
77523;SHT31;66637;-29.628;-49.938;2023-12-20T02:46:10;22.39;91.06
77523;SHT31;66637;-29.628;-49.938;2023-12-20T02:48:43;22.43;91.10
77523;SHT31;66637;-29.628;-49.938;2023-12-20T02:51:14;22.53;90.93
77523;SHT31;66637;-29.628;-49.938;2023-12-20T02:53:46;22.56;91.07
77523;SHT31;66637;-29.628;-49.938;2023-12-20T02:56:16;22.59;90.91
77523;SHT31;66637;-29.628;-49.938;2023-12-20T02:58:46;22.62;91.02
77523;SHT31;66637;-29.628;-49.938;2023-12-20T03:01:17;22.63;91.02
77523;SHT31;66637;-29.628;-49.938;2023-12-20T03:03:48;22.59;91.18
77523;SHT31;66637;-29.628;-49.938;2023-12-20T03:06:21;22.60;91.16
77523;SHT31;66637;-29.628;-49.938;2023-12-20T03:08:52;22.56;91.30
77523;SHT31;66637;-29.628;-49.938;2023-12-20T03:11:27;22.59;91.41
77523;SHT31;66637;-29.628;-49.938;2023-12-20T03:13:58;22.59;91.09
77523;SHT31;66637;-29.628;-49.938;2023-12-20T03:16:29;22.51;91.02
77523;SHT31;66637;-29.628;-49.938;2023-12-20T03:19:04;22.41;90.95
77523;SHT31;66637;-29.628;-49.938;2023-12-20T03:21:34;22.32;90.96
77523;SHT31;66637;-29.628;-49.938;2023-12-20T03:24:05;22.22;90.91
77523;SHT31;66637;-29.628;-49.938;2023-12-20T03:26:38;22.28;91.25
77523;SHT31;66637;-29.628;-49.938;2023-12-20T03:29:08;22.33;91.51
77523;SHT31;66637;-29.628;-49.938;2023-12-20T03:31:40;22.32;91.64
77523;SHT31;66637;-29.628;-49.938;2023-12-20T03:34:11;22.35;91.53
77523;SHT31;66637;-29.628;-49.938;2023-12-20T03:36:42;22.33;91.69
77523;SHT31;66637;-29.628;-49.938;2023-12-20T03:39:13;22.29;91.62
77523;SHT31;66637;-29.628;-49.938;2023-12-20T03:41:44;22.32;91.59
77523;SHT31;66637;-29.628;-49.938;2023-12-20T03:44:15;22.29;91.64
77523;SHT31;66637;-29.628;-49.938;2023-12-20T03:46:45;22.23;91.73
77523;SHT31;66637;-29.628;-49.938;2023-12-20T03:49:16;22.21;91.74
77523;SHT31;66637;-29.628;-49.938;2023-12-20T03:51:48;22.15;92.04
77523;SHT31;66637;-29.628;-49.938;2023-12-20T03:54:19;22.13;92.05
77523;SHT31;66637;-29.628;-49.938;2023-12-20T03:56:49;22.13;92.02
77523;SHT31;66637;-29.628;-49.938;2023-12-20T03:59:20;22.12;92.01
77523;SHT31;66637;-29.628;-49.938;2023-12-20T04:01:51;22.12;92.03
77523;SHT31;66637;-29.628;-49.938;2023-12-20T04:04:21;22.11;92.10
77523;SHT31;66637;-29.628;-49.938;2023-12-20T04:06:51;22.09;92.17
77523;SHT31;66637;-29.628;-49.938;2023-12-20T04:09:22;22.11;92.11
77523;SHT31;66637;-29.628;-49.938;2023-12-20T04:11:53;22.09;92.11
77523;SHT31;66637;-29.628;-49.938;2023-12-20T04:14:23;22.09;92.18
77523;SHT31;66637;-29.628;-49.938;2023-12-20T04:16:56;22.08;92.24
77523;SHT31;66637;-29.628;-49.938;2023-12-20T04:19:26;22.08;92.20
77523;SHT31;66637;-29.628;-49.938;2023-12-20T04:21:56;22.05;92.17
77523;SHT31;66637;-29.628;-49.938;2023-12-20T04:24:27;22.05;92.36
77523;SHT31;66637;-29.628;-49.938;2023-12-20T04:26:59;22.02;92.25
77523;SHT31;66637;-29.628;-49.938;2023-12-20T04:29:29;22.06;92.29
77523;SHT31;66637;-29.628;-49.938;2023-12-20T04:32:00;22.02;92.25
77523;SHT31;66637;-29.628;-49.938;2023-12-20T04:34:32;22.02;92.27
77523;SHT31;66637;-29.628;-49.938;2023-12-20T04:37:02;22.04;92.22
77523;SHT31;66637;-29.628;-49.938;2023-12-20T04:39:34;22.00;92.18
77523;SHT31;66637;-29.628;-49.938;2023-12-20T04:42:06;21.95;92.26
77523;SHT31;66637;-29.628;-49.938;2023-12-20T04:44:37;21.97;92.24
77523;SHT31;66637;-29.628;-49.938;2023-12-20T04:47:07;21.98;92.32
77523;SHT31;66637;-29.628;-49.938;2023-12-20T04:49:38;21.97;92.34
77523;SHT31;66637;-29.628;-49.938;2023-12-20T04:52:09;21.92;92.36
77523;SHT31;66637;-29.628;-49.938;2023-12-20T04:54:39;21.92;92.37
77523;SHT31;66637;-29.628;-49.938;2023-12-20T04:57:12;21.95;92.39
77523;SHT31;66637;-29.628;-49.938;2023-12-20T04:59:42;21.94;92.42
77523;SHT31;66637;-29.628;-49.938;2023-12-20T05:02:13;21.90;92.41
77523;SHT31;66637;-29.628;-49.938;2023-12-20T05:04:43;21.90;92.45
77523;SHT31;66637;-29.628;-49.938;2023-12-20T05:07:14;21.92;92.53
77523;SHT31;66637;-29.628;-49.938;2023-12-20T05:09:44;21.88;92.52
77523;SHT31;66637;-29.628;-49.938;2023-12-20T05:12:16;21.90;92.49
77523;SHT31;66637;-29.628;-49.938;2023-12-20T05:14:46;21.90;92.47
77523;SHT31;66637;-29.628;-49.938;2023-12-20T05:17:16;21.87;92.42
77523;SHT31;66637;-29.628;-49.938;2023-12-20T05:19:48;21.88;92.41
77523;SHT31;66637;-29.628;-49.938;2023-12-20T05:22:21;21.90;92.50
77523;SHT31;66637;-29.628;-49.938;2023-12-20T05:24:51;21.91;92.46
77523;SHT31;66637;-29.628;-49.938;2023-12-20T05:27:22;21.92;92.43
77523;SHT31;66637;-29.628;-49.938;2023-12-20T05:30:12;21.91;92.31
77523;SHT31;66637;-29.628;-49.938;2023-12-20T05:32:42;21.97;92.17
77523;SHT31;66637;-29.628;-49.938;2023-12-20T05:35:14;21.97;92.09
77523;SHT31;66637;-29.628;-49.938;2023-12-20T05:37:46;22.02;91.96
77523;SHT31;66637;-29.628;-49.938;2023-12-20T05:40:18;22.01;91.99
77523;SHT31;66637;-29.628;-49.938;2023-12-20T05:42:49;21.98;91.75
77523;SHT31;66637;-29.628;-49.938;2023-12-20T05:45:20;21.94;91.62
77523;SHT31;66637;-29.628;-49.938;2023-12-20T05:47:50;21.95;91.79
77523;SHT31;66637;-29.628;-49.938;2023-12-20T05:50:21;22.01;91.80
77523;SHT31;66637;-29.628;-49.938;2023-12-20T05:52:51;21.98;91.79
77523;SHT31;66637;-29.628;-49.938;2023-12-20T05:55:22;22.01;91.87
77523;SHT31;66637;-29.628;-49.938;2023-12-20T05:57:52;22.00;91.92
77523;SHT31;66637;-29.628;-49.938;2023-12-20T06:00:23;22.01;91.96
77523;SHT31;66637;-29.628;-49.938;2023-12-20T06:02:55;22.04;92.09
77523;SHT31;66637;-29.628;-49.938;2023-12-20T06:05:27;22.02;92.12
77523;SHT31;66637;-29.628;-49.938;2023-12-20T06:07:57;22.01;92.26
77523;SHT31;66637;-29.628;-49.938;2023-12-20T06:10:31;22.00;92.28
77523;SHT31;66637;-29.628;-49.938;2023-12-20T06:13:02;21.97;92.02
77523;SHT31;66637;-29.628;-49.938;2023-12-20T06:15:35;21.92;91.97
77523;SHT31;66637;-29.628;-49.938;2023-12-20T06:18:06;21.90;91.86
77523;SHT31;66637;-29.628;-49.938;2023-12-20T06:20:38;21.84;91.94
77523;SHT31;66637;-29.628;-49.938;2023-12-20T06:23:09;21.82;92.12
77523;SHT31;66637;-29.628;-49.938;2023-12-20T06:25:40;21.87;92.21
77523;SHT31;66637;-29.628;-49.938;2023-12-20T06:28:10;21.88;92.32
77523;SHT31;66637;-29.628;-49.938;2023-12-20T06:30:44;21.85;92.27
77523;SHT31;66637;-29.628;-49.938;2023-12-20T06:33:17;21.84;92.29
77523;SHT31;66637;-29.628;-49.938;2023-12-20T06:35:50;21.82;92.27
77523;SHT31;66637;-29.628;-49.938;2023-12-20T06:38:20;21.82;92.15
77523;SHT31;66637;-29.628;-49.938;2023-12-20T06:40:52;21.85;92.05
77523;SHT31;66637;-29.628;-49.938;2023-12-20T06:43:24;21.81;92.10
77523;SHT31;66637;-29.628;-49.938;2023-12-20T06:46:14;21.81;91.99
77523;SHT31;66637;-29.628;-49.938;2023-12-20T06:48:44;21.77;91.99
77523;SHT31;66637;-29.628;-49.938;2023-12-20T06:51:16;21.75;91.88
77523;SHT31;66637;-29.628;-49.938;2023-12-20T06:53:48;21.81;92.12
77523;SHT31;66637;-29.628;-49.938;2023-12-20T06:56:19;21.78;91.98
77523;SHT31;66637;-29.628;-49.938;2023-12-20T06:58:50;21.78;91.94
77523;SHT31;66637;-29.628;-49.938;2023-12-20T07:01:20;21.77;91.97
77523;SHT31;66637;-29.628;-49.938;2023-12-20T07:03:51;21.80;92.00
77523;SHT31;66637;-29.628;-49.938;2023-12-20T07:06:22;21.77;91.79
77523;SHT31;66637;-29.628;-49.938;2023-12-20T07:08:54;21.75;91.99
77523;SHT31;66637;-29.628;-49.938;2023-12-20T07:11:26;21.71;91.92
77523;SHT31;66637;-29.628;-49.938;2023-12-20T07:13:56;21.73;91.74
77523;SHT31;66637;-29.628;-49.938;2023-12-20T07:16:27;21.77;91.95
77523;SHT31;66637;-29.628;-49.938;2023-12-20T07:18:58;21.78;91.99
77523;SHT31;66637;-29.628;-49.938;2023-12-20T07:21:29;21.75;92.04
77523;SHT31;66637;-29.628;-49.938;2023-12-20T07:23:59;21.75;91.91
77523;SHT31;66637;-29.628;-49.938;2023-12-20T07:26:29;21.81;91.87
77523;SHT31;66637;-29.628;-49.938;2023-12-20T07:29:01;21.78;92.02
77523;SHT31;66637;-29.628;-49.938;2023-12-20T07:31:33;21.81;91.95
77523;SHT31;66637;-29.628;-49.938;2023-12-20T07:34:05;21.81;92.08
77523;SHT31;66637;-29.628;-49.938;2023-12-20T07:36:38;21.80;92.07
77523;SHT31;66637;-29.628;-49.938;2023-12-20T07:39:09;21.71;92.07
77523;SHT31;66637;-29.628;-49.938;2023-12-20T07:41:40;21.61;91.99
77523;SHT31;66637;-29.628;-49.938;2023-12-20T07:44:13;21.61;91.97
77523;SHT31;66637;-29.628;-49.938;2023-12-20T07:46:45;21.55;91.88
77523;SHT31;66637;-29.628;-49.938;2023-12-20T07:49:16;21.60;91.92
77523;SHT31;66637;-29.628;-49.938;2023-12-20T07:51:46;21.57;91.98
77523;SHT31;66637;-29.628;-49.938;2023-12-20T07:54:16;21.64;92.05
77523;SHT31;66637;-29.628;-49.938;2023-12-20T07:56:49;21.64;92.05
77523;SHT31;66637;-29.628;-49.938;2023-12-20T07:59:19;21.65;91.96
77523;SHT31;66637;-29.628;-49.938;2023-12-20T08:02:00;21.62;91.88
77523;SHT31;66637;-29.628;-49.938;2023-12-20T08:04:30;21.61;91.92
77523;SHT31;66637;-29.628;-49.938;2023-12-20T08:07:03;21.67;91.88
77523;SHT31;66637;-29.628;-49.938;2023-12-20T08:09:34;21.65;91.96
77523;SHT31;66637;-29.628;-49.938;2023-12-20T08:12:07;21.70;92.03
77523;SHT31;66637;-29.628;-49.938;2023-12-20T08:14:39;21.68;92.19
77523;SHT31;66637;-29.628;-49.938;2023-12-20T08:17:11;21.71;92.27
77523;SHT31;66637;-29.628;-49.938;2023-12-20T08:19:43;21.68;92.18
77523;SHT31;66637;-29.628;-49.938;2023-12-20T08:22:14;21.62;91.90
77523;SHT31;66637;-29.628;-49.938;2023-12-20T08:24:44;21.64;91.75
77523;SHT31;66637;-29.628;-49.938;2023-12-20T08:27:14;21.85;91.49
77523;SHT31;66637;-29.628;-49.938;2023-12-20T08:29:45;22.09;90.79
77523;SHT31;66637;-29.628;-49.938;2023-12-20T08:32:15;22.18;90.53
77523;SHT31;66637;-29.628;-49.938;2023-12-20T08:34:45;22.02;90.75
77523;SHT31;66637;-29.628;-49.938;2023-12-20T08:37:17;22.04;90.68
77523;SHT31;66637;-29.628;-49.938;2023-12-20T08:39:48;22.18;90.42
77523;SHT31;66637;-29.628;-49.938;2023-12-20T08:42:19;22.53;89.61
77523;SHT31;66637;-29.628;-49.938;2023-12-20T08:44:50;23.76;87.19
77523;SHT31;66637;-29.628;-49.938;2023-12-20T08:47:20;24.35;85.95
77523;SHT31;66637;-29.628;-49.938;2023-12-20T08:49:50;23.62;86.95
77523;SHT31;66637;-29.628;-49.938;2023-12-20T08:52:22;23.92;86.92
77523;SHT31;66637;-29.628;-49.938;2023-12-20T08:54:56;25.03;84.58
77523;SHT31;66637;-29.628;-49.938;2023-12-20T08:57:27;24.39;85.80
77523;SHT31;66637;-29.628;-49.938;2023-12-20T08:59:57;23.76;87.14
77523;SHT31;66637;-29.628;-49.938;2023-12-20T09:02:28;23.58;87.90
77523;SHT31;66637;-29.628;-49.938;2023-12-20T09:04:59;23.55;87.64
77523;SHT31;66637;-29.628;-49.938;2023-12-20T09:07:29;23.45;87.68
77523;SHT31;66637;-29.628;-49.938;2023-12-20T09:10:03;23.51;88.22
77523;SHT31;66637;-29.628;-49.938;2023-12-20T09:12:33;23.65;87.88
77523;SHT31;66637;-29.628;-49.938;2023-12-20T09:15:04;23.67;87.63
77523;SHT31;66637;-29.628;-49.938;2023-12-20T09:17:34;23.81;87.33
77523;SHT31;66637;-29.628;-49.938;2023-12-20T09:20:06;23.86;87.42
77523;SHT31;66637;-29.628;-49.938;2023-12-20T09:22:38;23.84;87.22
77523;SHT31;66637;-29.628;-49.938;2023-12-20T09:25:11;23.85;87.38
77523;SHT31;66637;-29.628;-49.938;2023-12-20T09:27:42;23.89;87.41
77523;SHT31;66637;-29.628;-49.938;2023-12-20T09:30:13;23.81;87.34
77523;SHT31;66637;-29.628;-49.938;2023-12-20T09:32:55;23.75;87.54
77523;SHT31;66637;-29.628;-49.938;2023-12-20T09:35:26;23.62;87.41
77523;SHT31;66637;-29.628;-49.938;2023-12-20T09:37:58;23.62;87.33
77523;SHT31;66637;-29.628;-49.938;2023-12-20T09:40:29;23.65;87.43
77523;SHT31;66637;-29.628;-49.938;2023-12-20T09:43:04;23.61;87.27
77523;SHT31;66637;-29.628;-49.938;2023-12-20T09:45:40;23.61;87.04
77523;SHT31;66637;-29.628;-49.938;2023-12-20T09:48:33;23.99;86.26
77523;SHT31;66637;-29.628;-49.938;2023-12-20T09:51:04;24.04;85.90
77523;SHT31;66637;-29.628;-49.938;2023-12-20T09:53:37;26.27;80.98
77523;SHT31;66637;-29.628;-49.938;2023-12-20T09:56:09;27.11;77.05
77523;SHT31;66637;-29.628;-49.938;2023-12-20T09:58:39;25.53;80.56
77523;SHT31;66637;-29.628;-49.938;2023-12-20T10:01:10;25.68;80.67
77523;SHT31;66637;-29.628;-49.938;2023-12-20T10:03:41;25.73;80.13
77523;SHT31;66637;-29.628;-49.938;2023-12-20T10:06:13;25.48;80.49
77523;SHT31;66637;-29.628;-49.938;2023-12-20T10:08:44;24.66;82.46
77523;SHT31;66637;-29.628;-49.938;2023-12-20T10:11:14;25.68;81.09
77523;SHT31;66637;-29.628;-49.938;2023-12-20T10:13:47;26.27;78.68
77523;SHT31;66637;-29.628;-49.938;2023-12-20T10:16:25;25.61;80.11
77523;SHT31;66637;-29.628;-49.938;2023-12-20T10:18:57;25.20;81.83
77523;SHT31;66637;-29.628;-49.938;2023-12-20T10:21:28;25.81;80.30
77523;SHT31;66637;-29.628;-49.938;2023-12-20T10:23:58;25.34;81.07
77523;SHT31;66637;-29.628;-49.938;2023-12-20T10:26:29;25.08;81.72
77523;SHT31;66637;-29.628;-49.938;2023-12-20T10:29:01;25.03;82.32
77523;SHT31;66637;-29.628;-49.938;2023-12-20T10:31:34;25.06;82.68
77523;SHT31;66637;-29.628;-49.938;2023-12-20T10:34:05;25.01;82.46
77523;SHT31;66637;-29.628;-49.938;2023-12-20T10:36:36;25.43;81.69
77523;SHT31;66637;-29.628;-49.938;2023-12-20T10:39:08;25.83;81.61
77523;SHT31;66637;-29.628;-49.938;2023-12-20T10:41:41;25.85;81.10
77523;SHT31;66637;-29.628;-49.938;2023-12-20T10:44:12;25.90;80.42
77523;SHT31;66637;-29.628;-49.938;2023-12-20T10:46:44;26.23;80.03
77523;SHT31;66637;-29.628;-49.938;2023-12-20T10:49:21;26.26;79.90
77523;SHT31;66637;-29.628;-49.938;2023-12-20T10:51:53;25.78;80.83
77523;SHT31;66637;-29.628;-49.938;2023-12-20T10:54:26;25.53;81.39
77523;SHT31;66637;-29.628;-49.938;2023-12-20T10:56:58;25.68;81.77
77523;SHT31;66637;-29.628;-49.938;2023-12-20T10:59:36;25.79;80.99
77523;SHT31;66637;-29.628;-49.938;2023-12-20T11:02:07;25.66;80.61
77523;SHT31;66637;-29.628;-49.938;2023-12-20T11:04:44;25.83;80.43
77523;SHT31;66637;-29.628;-49.938;2023-12-20T11:07:32;26.20;79.87
77523;SHT31;66637;-29.628;-49.938;2023-12-20T11:10:30;26.92;78.49
77523;SHT31;66637;-29.628;-49.938;2023-12-20T11:13:31;26.80;78.93
77523;SHT31;66637;-29.628;-49.938;2023-12-20T11:16:03;26.40;79.27
77523;SHT31;66637;-29.628;-49.938;2023-12-20T11:18:34;26.24;80.16
77523;SHT31;66637;-29.628;-49.938;2023-12-20T11:21:05;26.67;79.17
77523;SHT31;66637;-29.628;-49.938;2023-12-20T11:23:38;26.84;78.28
77523;SHT31;66637;-29.628;-49.938;2023-12-20T11:26:09;26.87;78.20
77523;SHT31;66637;-29.628;-49.938;2023-12-20T11:28:40;26.67;78.49
77523;SHT31;66637;-29.628;-49.938;2023-12-20T11:31:14;26.73;78.89
77523;SHT31;66637;-29.628;-49.938;2023-12-20T11:33:46;26.77;78.36
77523;SHT31;66637;-29.628;-49.938;2023-12-20T11:36:25;26.97;77.91
77523;SHT31;66637;-29.628;-49.938;2023-12-20T11:38:57;26.78;78.21
77523;SHT31;66637;-29.628;-49.938;2023-12-20T11:41:27;26.88;78.21
77523;SHT31;66637;-29.628;-49.938;2023-12-20T11:43:57;27.21;77.71
77523;SHT31;66637;-29.628;-49.938;2023-12-20T11:46:28;27.65;76.21
77523;SHT31;66637;-29.628;-49.938;2023-12-20T11:49:00;27.93;75.67
77523;SHT31;66637;-29.628;-49.938;2023-12-20T11:51:32;27.67;75.67
77523;SHT31;66637;-29.628;-49.938;2023-12-20T11:54:03;27.34;76.52
77523;SHT31;66637;-29.628;-49.938;2023-12-20T11:56:33;26.68;78.47
77523;SHT31;66637;-29.628;-49.938;2023-12-20T11:59:04;26.46;79.46
77523;SHT31;66637;-29.628;-49.938;2023-12-20T12:01:51;26.34;79.45
77523;SHT31;66637;-29.628;-49.938;2023-12-20T12:04:21;26.22;79.92
77523;SHT31;66637;-29.628;-49.938;2023-12-20T12:06:52;26.29;80.14
77523;SHT31;66637;-29.628;-49.938;2023-12-20T12:09:23;26.64;79.29
77523;SHT31;66637;-29.628;-49.938;2023-12-20T12:11:54;26.63;79.07
77523;SHT31;66637;-29.628;-49.938;2023-12-20T12:14:25;26.60;79.25
77523;SHT31;66637;-29.628;-49.938;2023-12-20T12:16:55;26.73;78.58
77523;SHT31;66637;-29.628;-49.938;2023-12-20T12:19:27;26.80;78.46
77523;SHT31;66637;-29.628;-49.938;2023-12-20T12:22:15;27.07;78.26
77523;SHT31;66637;-29.628;-49.938;2023-12-20T12:24:50;27.19;77.70
77523;SHT31;66637;-29.628;-49.938;2023-12-20T12:27:23;27.63;76.32
77523;SHT31;66637;-29.628;-49.938;2023-12-20T12:30:04;28.09;75.48
77523;SHT31;66637;-29.628;-49.938;2023-12-20T12:32:38;28.06;75.44
77523;SHT31;66637;-29.628;-49.938;2023-12-20T12:35:09;28.43;74.15
77523;SHT31;66637;-29.628;-49.938;2023-12-20T12:37:40;28.74;73.34
77523;SHT31;66637;-29.628;-49.938;2023-12-20T12:40:13;28.84;73.41
77523;SHT31;66637;-29.628;-49.938;2023-12-20T12:42:45;28.64;73.45
77523;SHT31;66637;-29.628;-49.938;2023-12-20T12:45:15;28.30;74.26
77523;SHT31;66637;-29.628;-49.938;2023-12-20T12:47:45;28.39;74.66
77523;SHT31;66637;-29.628;-49.938;2023-12-20T12:50:16;28.44;74.44
77523;SHT31;66637;-29.628;-49.938;2023-12-20T12:52:46;28.58;74.22
77523;SHT31;66637;-29.628;-49.938;2023-12-20T12:55:16;28.47;74.36
77523;SHT31;66637;-29.628;-49.938;2023-12-20T12:57:48;28.43;74.21
77523;SHT31;66637;-29.628;-49.938;2023-12-20T13:00:18;28.90;73.50
77523;SHT31;66637;-29.628;-49.938;2023-12-20T13:02:49;28.88;73.78
77523;SHT31;66637;-29.628;-49.938;2023-12-20T13:05:19;28.68;74.09
77523;SHT31;66637;-29.628;-49.938;2023-12-20T13:07:50;28.67;73.65
77523;SHT31;66637;-29.628;-49.938;2023-12-20T13:10:21;28.87;73.57
77523;SHT31;66637;-29.628;-49.938;2023-12-20T13:12:52;28.54;74.07
77523;SHT31;66637;-29.628;-49.938;2023-12-20T13:15:23;28.43;74.81
77523;SHT31;66637;-29.628;-49.938;2023-12-20T13:17:53;29.22;72.73
77523;SHT31;66637;-29.628;-49.938;2023-12-20T13:20:24;29.73;71.93
77523;SHT31;66637;-29.628;-49.938;2023-12-20T13:22:54;29.83;71.42
77523;SHT31;66637;-29.628;-49.938;2023-12-20T13:25:25;29.94;71.30
77523;SHT31;66637;-29.628;-49.938;2023-12-20T13:28:01;29.63;71.75
77523;SHT31;66637;-29.628;-49.938;2023-12-20T13:30:34;29.74;71.66
77523;SHT31;66637;-29.628;-49.938;2023-12-20T13:33:06;29.45;72.27
77523;SHT31;66637;-29.628;-49.938;2023-12-20T13:35:37;29.12;72.97
77523;SHT31;66637;-29.628;-49.938;2023-12-20T13:38:08;29.87;71.56
77523;SHT31;66637;-29.628;-49.938;2023-12-20T13:40:40;30.10;71.36
77523;SHT31;66637;-29.628;-49.938;2023-12-20T13:43:11;30.04;70.52
77523;SHT31;66637;-29.628;-49.938;2023-12-20T13:45:42;29.74;72.16
77523;SHT31;66637;-29.628;-49.938;2023-12-20T13:48:13;29.94;71.63
77523;SHT31;66637;-29.628;-49.938;2023-12-20T13:50:44;30.28;71.02
77523;SHT31;66637;-29.628;-49.938;2023-12-20T13:53:15;30.24;70.85
77523;SHT31;66637;-29.628;-49.938;2023-12-20T13:55:45;30.21;69.81
77523;SHT31;66637;-29.628;-49.938;2023-12-20T13:58:16;29.56;72.56
77523;SHT31;66637;-29.628;-49.938;2023-12-20T14:00:46;28.78;74.11
77523;SHT31;66637;-29.628;-49.938;2023-12-20T14:03:19;28.55;74.98
77523;SHT31;66637;-29.628;-49.938;2023-12-20T14:05:50;28.57;75.30
77523;SHT31;66637;-29.628;-49.938;2023-12-20T14:08:20;28.69;76.16
77523;SHT31;66637;-29.628;-49.938;2023-12-20T14:10:50;28.67;75.09
77523;SHT31;66637;-29.628;-49.938;2023-12-20T14:13:22;28.47;75.17
77523;SHT31;66637;-29.628;-49.938;2023-12-20T14:15:53;28.84;75.14
77523;SHT31;66637;-29.628;-49.938;2023-12-20T14:18:24;29.69;72.79
77523;SHT31;66637;-29.628;-49.938;2023-12-20T14:20:55;30.34;71.10
77523;SHT31;66637;-29.628;-49.938;2023-12-20T14:23:26;30.16;70.57
77523;SHT31;66637;-29.628;-49.938;2023-12-20T14:25:57;29.81;71.55
77523;SHT31;66637;-29.628;-49.938;2023-12-20T14:28:28;29.57;71.43
77523;SHT31;66637;-29.628;-49.938;2023-12-20T14:30:59;29.35;72.49
77523;SHT31;66637;-29.628;-49.938;2023-12-20T14:33:30;29.20;72.65
77523;SHT31;66637;-29.628;-49.938;2023-12-20T14:36:02;29.22;73.57
77523;SHT31;66637;-29.628;-49.938;2023-12-20T14:38:36;29.06;73.96
77523;SHT31;66637;-29.628;-49.938;2023-12-20T14:41:08;28.65;74.31
77523;SHT31;66637;-29.628;-49.938;2023-12-20T14:43:40;28.51;75.29
77523;SHT31;66637;-29.628;-49.938;2023-12-20T14:46:10;29.43;74.18
77523;SHT31;66637;-29.628;-49.938;2023-12-20T14:48:41;29.77;72.53
77523;SHT31;66637;-29.628;-49.938;2023-12-20T14:51:13;30.08;71.64
77523;SHT31;66637;-29.628;-49.938;2023-12-20T14:53:46;30.48;71.12
77523;SHT31;66637;-29.628;-49.938;2023-12-20T14:56:16;30.57;70.05
77523;SHT31;66637;-29.628;-49.938;2023-12-20T14:58:47;29.70;71.65
77523;SHT31;66637;-29.628;-49.938;2023-12-20T15:01:17;29.22;72.81
77523;SHT31;66637;-29.628;-49.938;2023-12-20T15:03:52;28.81;74.07
77523;SHT31;66637;-29.628;-49.938;2023-12-20T15:06:24;28.52;74.92
77523;SHT31;66637;-29.628;-49.938;2023-12-20T15:08:55;28.21;74.84
77523;SHT31;66637;-29.628;-49.938;2023-12-20T15:11:27;28.45;75.17
77523;SHT31;66637;-29.628;-49.938;2023-12-20T15:13:58;27.97;75.84
77523;SHT31;66637;-29.628;-49.938;2023-12-20T15:16:31;27.67;77.08